createdAt,value
2018-08-08T00:00:42.234Z,983.55
2018-08-08T00:01:42.381Z,983.53
2018-08-08T00:02:42.609Z,983.52
2018-08-08T00:03:42.708Z,983.47
2018-08-08T00:04:42.848Z,983.49
2018-08-08T00:05:42.994Z,983.44
2018-08-08T00:06:43.143Z,983.42
2018-08-08T00:07:43.291Z,983.38
2018-08-08T00:08:43.434Z,983.34
2018-08-08T00:09:43.575Z,983.34
2018-08-08T00:10:43.742Z,983.30
2018-08-08T00:11:43.880Z,983.26
2018-08-08T00:12:44.025Z,983.28
2018-08-08T00:13:44.171Z,983.27
2018-08-08T00:14:44.329Z,983.24
2018-08-08T00:15:44.467Z,983.26
2018-08-08T00:16:44.609Z,983.27
2018-08-08T00:17:45.471Z,983.22
2018-08-08T00:18:44.896Z,983.27
2018-08-08T00:19:45.044Z,983.22
2018-08-08T00:20:45.189Z,983.22
2018-08-08T00:21:45.360Z,983.23
2018-08-08T00:22:45.506Z,983.24
2018-08-08T00:23:45.643Z,983.21
2018-08-08T00:24:45.804Z,983.19
2018-08-08T00:25:45.945Z,983.23
2018-08-08T00:26:46.134Z,983.20
2018-08-08T00:27:46.229Z,983.22
2018-08-08T00:28:46.364Z,983.21
2018-08-08T00:29:46.507Z,983.23
2018-08-08T00:30:46.660Z,983.25
2018-08-08T00:31:46.800Z,983.23
2018-08-08T00:32:46.969Z,983.24
2018-08-08T00:33:47.108Z,983.22
2018-08-08T00:34:47.253Z,983.28
2018-08-08T00:35:47.437Z,983.25
2018-08-08T00:36:47.581Z,983.31
2018-08-08T00:37:47.721Z,983.26
2018-08-08T00:38:47.892Z,983.31
2018-08-08T00:39:48.033Z,983.30
2018-08-08T00:40:48.180Z,983.31
2018-08-08T00:41:48.326Z,983.33
2018-08-08T00:42:48.494Z,983.34
2018-08-08T00:43:48.642Z,983.33
2018-08-08T00:44:48.781Z,983.36
2018-08-08T00:45:48.918Z,983.36
2018-08-08T00:46:49.079Z,983.40
2018-08-08T00:47:49.223Z,983.42
2018-08-08T00:48:49.361Z,983.46
2018-08-08T00:49:49.556Z,983.51
2018-08-08T00:50:49.735Z,983.57
2018-08-08T00:51:49.879Z,983.62
2018-08-08T00:52:50.021Z,983.68
2018-08-08T00:53:50.184Z,983.72
2018-08-08T00:54:50.316Z,983.74
2018-08-08T00:55:50.460Z,983.76
2018-08-08T00:56:50.604Z,983.81
2018-08-08T00:57:50.744Z,983.76
2018-08-08T00:58:50.898Z,983.79
2018-08-08T00:59:51.044Z,983.79
2018-08-08T01:00:51.192Z,983.76
2018-08-08T01:01:51.326Z,983.74
2018-08-08T01:02:52.338Z,983.76
2018-08-08T01:03:51.666Z,983.79
2018-08-08T01:04:51.805Z,983.86
2018-08-08T01:05:51.973Z,983.87
2018-08-08T01:06:52.116Z,983.87
2018-08-08T01:07:52.256Z,983.91
2018-08-08T01:08:52.474Z,983.94
2018-08-08T01:09:52.564Z,983.93
2018-08-08T01:10:52.708Z,983.93
2018-08-08T01:11:52.847Z,983.90
2018-08-08T01:12:52.987Z,983.95
2018-08-08T01:13:53.152Z,983.92
2018-08-08T01:14:53.288Z,983.98
2018-08-08T01:15:53.432Z,983.95
2018-08-08T01:16:53.569Z,983.97
2018-08-08T01:17:53.754Z,984.00
2018-08-08T01:18:53.895Z,984.00
2018-08-08T01:19:54.044Z,984.05
2018-08-08T01:20:54.219Z,984.02
2018-08-08T01:21:54.356Z,984.05
2018-08-08T01:22:54.498Z,983.99
2018-08-08T01:23:54.643Z,984.05
2018-08-08T01:24:54.820Z,984.04
2018-08-08T01:25:54.957Z,984.12
2018-08-08T01:26:55.100Z,984.04
2018-08-08T01:27:55.243Z,984.03
2018-08-08T01:28:55.379Z,984.01
2018-08-08T01:29:55.517Z,983.95
2018-08-08T01:30:55.660Z,983.90
2018-08-08T01:31:55.801Z,983.88
2018-08-08T01:32:55.987Z,983.79
2018-08-08T01:33:56.125Z,983.77
2018-08-08T01:34:56.269Z,983.75
2018-08-08T01:35:56.412Z,983.74
2018-08-08T01:36:56.587Z,983.73
2018-08-08T01:37:56.720Z,983.77
2018-08-08T01:38:56.866Z,983.80
2018-08-08T01:39:57.021Z,983.84
2018-08-08T01:40:57.163Z,983.84
2018-08-08T01:41:57.307Z,983.88
2018-08-08T01:42:57.473Z,983.87
2018-08-08T01:43:57.614Z,983.91
2018-08-08T01:44:57.772Z,983.92
2018-08-08T01:45:58.100Z,983.93
2018-08-08T01:46:58.053Z,984.04
2018-08-08T01:47:58.198Z,984.12
2018-08-08T01:48:58.457Z,984.16
2018-08-08T01:49:58.505Z,984.17
2018-08-08T01:50:58.648Z,984.21
2018-08-08T01:51:58.787Z,984.22
2018-08-08T01:52:58.977Z,984.24
2018-08-08T01:53:59.110Z,984.24
2018-08-08T01:54:59.261Z,984.25
2018-08-08T01:55:59.404Z,984.23
2018-08-08T01:56:59.566Z,984.24
2018-08-08T01:57:59.705Z,984.23
2018-08-08T01:58:59.855Z,984.18
2018-08-08T01:59:59.981Z,984.18
2018-08-08T02:01:00.125Z,984.16
2018-08-08T02:02:00.266Z,984.18
2018-08-08T02:03:00.434Z,984.16
2018-08-08T02:04:00.583Z,984.19
2018-08-08T02:05:00.729Z,984.14
2018-08-08T02:06:00.900Z,984.17
2018-08-08T02:07:01.038Z,984.17
2018-08-08T02:08:01.183Z,984.16
2018-08-08T02:09:01.346Z,984.10
2018-08-08T02:10:01.491Z,984.06
2018-08-08T02:11:01.633Z,984.03
2018-08-08T02:12:01.774Z,984.02
2018-08-08T02:13:01.929Z,984.02
2018-08-08T02:14:02.071Z,983.96
2018-08-08T02:15:02.211Z,983.97
2018-08-08T02:16:02.379Z,983.97
2018-08-08T02:17:02.517Z,983.95
2018-08-08T02:18:02.658Z,983.95
2018-08-08T02:19:02.825Z,983.90
2018-08-08T02:20:02.964Z,983.95
2018-08-08T02:21:03.106Z,983.90
2018-08-08T02:22:03.278Z,983.91
2018-08-08T02:23:03.414Z,983.89
2018-08-08T02:24:03.553Z,983.88
2018-08-08T02:25:03.735Z,983.89
2018-08-08T02:26:03.928Z,983.86
2018-08-08T02:27:04.056Z,983.89
2018-08-08T02:28:04.201Z,983.89
2018-08-08T02:29:04.339Z,983.86
2018-08-08T02:30:04.491Z,983.90
2018-08-08T02:31:04.738Z,983.89
2018-08-08T02:32:04.725Z,983.91
2018-08-08T02:33:04.868Z,983.89
2018-08-08T02:34:05.025Z,983.96
2018-08-08T02:35:05.167Z,983.92
2018-08-08T02:36:05.312Z,983.92
2018-08-08T02:37:05.479Z,983.91
2018-08-08T02:38:05.612Z,983.87
2018-08-08T02:39:05.753Z,983.88
2018-08-08T02:40:05.895Z,983.84
2018-08-08T02:41:06.063Z,983.82
2018-08-08T02:42:06.195Z,983.80
2018-08-08T02:43:06.329Z,983.80
2018-08-08T02:44:06.477Z,983.80
2018-08-08T02:45:06.625Z,983.76
2018-08-08T02:46:06.768Z,983.73
2018-08-08T02:47:06.909Z,983.66
2018-08-08T02:48:07.053Z,983.66
2018-08-08T02:49:07.198Z,983.67
2018-08-08T02:50:07.338Z,983.66
2018-08-08T02:51:07.479Z,983.68
2018-08-08T02:52:07.672Z,983.74
2018-08-08T02:53:07.792Z,983.75
2018-08-08T02:54:07.936Z,983.77
2018-08-08T02:55:08.072Z,983.78
2018-08-08T02:56:08.231Z,983.77
2018-08-08T02:57:08.368Z,983.78
2018-08-08T02:58:08.552Z,983.80
2018-08-08T02:59:08.655Z,983.80
2018-08-08T03:00:08.825Z,983.79
2018-08-08T03:01:08.965Z,983.77
2018-08-08T03:02:09.109Z,983.80
2018-08-08T03:03:09.277Z,983.85
2018-08-08T03:04:09.412Z,983.87
2018-08-08T03:05:09.575Z,983.91
2018-08-08T03:06:09.696Z,983.90
2018-08-08T03:07:09.862Z,983.90
2018-08-08T03:08:09.994Z,983.97
2018-08-08T03:09:10.138Z,983.96
2018-08-08T03:10:10.280Z,983.97
2018-08-08T03:11:10.439Z,984.00
2018-08-08T03:12:10.577Z,983.96
2018-08-08T03:13:10.741Z,983.96
2018-08-08T03:14:10.882Z,983.98
2018-08-08T03:15:11.027Z,983.96
2018-08-08T03:16:11.165Z,983.96
2018-08-08T03:17:11.337Z,983.94
2018-08-08T03:18:11.489Z,983.94
2018-08-08T03:19:11.620Z,983.94
2018-08-08T03:20:11.782Z,983.88
2018-08-08T03:21:11.925Z,983.93
2018-08-08T03:22:12.067Z,983.92
2018-08-08T03:23:12.214Z,983.91
2018-08-08T03:24:12.371Z,983.94
2018-08-08T03:25:12.509Z,983.93
2018-08-08T03:26:12.684Z,983.93
2018-08-08T03:27:12.794Z,983.96
2018-08-08T03:28:12.942Z,983.96
2018-08-08T03:29:13.078Z,984.01
2018-08-08T03:30:13.220Z,984.01
2018-08-08T03:31:13.365Z,984.04
2018-08-08T03:32:13.529Z,984.04
2018-08-08T03:33:13.673Z,984.03
2018-08-08T03:34:13.811Z,984.06
2018-08-08T03:35:13.975Z,984.02
2018-08-08T03:36:14.112Z,984.03
2018-08-08T03:37:14.255Z,984.03
2018-08-08T03:38:14.395Z,984.05
2018-08-08T03:39:14.534Z,984.06
2018-08-08T03:40:14.676Z,984.05
2018-08-08T03:41:14.820Z,984.06
2018-08-08T03:42:15.034Z,984.10
2018-08-08T03:43:15.136Z,984.06
2018-08-08T03:44:15.281Z,984.10
2018-08-08T03:45:15.430Z,984.12
2018-08-08T03:46:15.584Z,984.10
2018-08-08T03:47:15.723Z,984.10
2018-08-08T03:48:15.867Z,984.10
2018-08-08T03:49:16.012Z,984.09
2018-08-08T03:50:16.149Z,984.12
2018-08-08T03:51:16.294Z,984.13
2018-08-08T03:52:16.440Z,984.11
2018-08-08T03:53:16.650Z,984.14
2018-08-08T03:54:16.740Z,984.15
2018-08-08T03:55:16.888Z,984.18
2018-08-08T03:56:17.027Z,984.18
2018-08-08T03:57:17.183Z,984.15
2018-08-08T03:58:17.326Z,984.13
2018-08-08T03:59:17.462Z,984.10
2018-08-08T04:00:17.625Z,984.06
2018-08-08T04:01:17.764Z,984.03
2018-08-08T04:02:17.909Z,984.02
2018-08-08T04:03:18.071Z,983.97
2018-08-08T04:04:18.205Z,983.96
2018-08-08T04:05:18.380Z,983.96
2018-08-08T04:06:18.522Z,983.95
2018-08-08T04:07:18.666Z,983.97
2018-08-08T04:08:18.806Z,983.96
2018-08-08T04:09:18.978Z,983.96
2018-08-08T04:10:19.085Z,983.98
2018-08-08T04:11:19.222Z,983.98
2018-08-08T04:12:19.376Z,983.96
2018-08-08T04:13:19.516Z,983.96
2018-08-08T04:14:19.661Z,983.97
2018-08-08T04:15:19.834Z,984.00
2018-08-08T04:16:19.974Z,983.99
2018-08-08T04:17:20.113Z,983.98
2018-08-08T04:18:20.271Z,984.01
2018-08-08T04:19:20.432Z,984.09
2018-08-08T04:20:20.569Z,984.20
2018-08-08T04:21:20.709Z,984.43
2018-08-08T04:22:20.854Z,984.90
2018-08-08T04:23:21.021Z,985.32
2018-08-08T04:24:21.181Z,985.33
2018-08-08T04:25:21.301Z,985.34
2018-08-08T04:26:21.463Z,985.25
2018-08-08T04:27:21.610Z,984.69
2018-08-08T04:28:21.762Z,984.52
2018-08-08T04:29:21.901Z,984.64
2018-08-08T04:30:22.063Z,984.77
2018-08-08T04:31:22.205Z,985.00
2018-08-08T04:32:22.355Z,985.05
2018-08-08T04:33:22.485Z,985.03
2018-08-08T04:34:22.662Z,984.99
2018-08-08T04:35:22.797Z,984.94
2018-08-08T04:36:22.936Z,985.00
2018-08-08T04:37:23.081Z,985.08
2018-08-08T04:38:23.246Z,985.16
2018-08-08T04:39:23.386Z,985.20
2018-08-08T04:40:23.524Z,985.20
2018-08-08T04:41:23.689Z,985.33
2018-08-08T04:42:23.824Z,985.49
2018-08-08T04:43:23.983Z,985.34
2018-08-08T04:44:24.122Z,985.16
2018-08-08T04:45:24.324Z,985.00
2018-08-08T04:46:24.425Z,984.96
2018-08-08T04:47:24.564Z,984.99
2018-08-08T04:48:24.711Z,985.10
2018-08-08T04:49:24.882Z,985.22
2018-08-08T04:50:25.021Z,985.33
2018-08-08T04:51:25.164Z,985.30
2018-08-08T04:52:25.305Z,985.26
2018-08-08T04:53:25.482Z,985.21
2018-08-08T04:54:25.622Z,985.14
2018-08-08T04:55:25.778Z,985.13
2018-08-08T04:56:25.948Z,985.15
2018-08-08T04:57:26.048Z,985.20
2018-08-08T04:58:26.193Z,985.24
2018-08-08T04:59:26.347Z,985.26
2018-08-08T05:00:26.483Z,985.29
2018-08-08T05:01:26.621Z,985.24
2018-08-08T05:02:26.766Z,985.18
2018-08-08T05:03:26.924Z,985.19
2018-08-08T05:04:27.061Z,985.15
2018-08-08T05:05:27.202Z,985.11
2018-08-08T05:06:27.365Z,985.10
2018-08-08T05:07:27.498Z,985.12
2018-08-08T05:08:27.642Z,985.12
2018-08-08T05:09:27.781Z,985.09
2018-08-08T05:10:27.943Z,985.06
2018-08-08T05:11:28.079Z,985.02
2018-08-08T05:12:28.221Z,985.00
2018-08-08T05:13:28.375Z,984.94
2018-08-08T05:14:28.515Z,984.94
2018-08-08T05:15:28.656Z,984.97
2018-08-08T05:16:28.804Z,984.98
2018-08-08T05:17:28.990Z,984.96
2018-08-08T05:18:29.124Z,984.98
2018-08-08T05:19:29.252Z,984.97
2018-08-08T05:20:29.467Z,985.05
2018-08-08T05:21:29.545Z,985.00
2018-08-08T05:22:29.686Z,985.06
2018-08-08T05:23:29.830Z,985.04
2018-08-08T05:24:29.996Z,985.04
2018-08-08T05:25:30.131Z,985.07
2018-08-08T05:26:30.280Z,985.09
2018-08-08T05:27:30.417Z,985.06
2018-08-08T05:28:30.554Z,985.13
2018-08-08T05:29:30.697Z,985.16
2018-08-08T05:30:30.868Z,985.17
2018-08-08T05:31:31.008Z,985.28
2018-08-08T05:32:31.149Z,985.31
2018-08-08T05:33:31.325Z,985.33
2018-08-08T05:34:31.463Z,985.35
2018-08-08T05:35:31.608Z,985.38
2018-08-08T05:36:31.755Z,985.41
2018-08-08T05:37:31.895Z,985.45
2018-08-08T05:38:32.038Z,985.48
2018-08-08T05:39:32.203Z,985.47
2018-08-08T05:40:32.342Z,985.43
2018-08-08T05:41:32.485Z,985.51
2018-08-08T05:42:32.628Z,985.51
2018-08-08T05:43:32.780Z,985.53
2018-08-08T05:44:32.918Z,985.54
2018-08-08T05:45:33.062Z,985.63
2018-08-08T05:46:33.223Z,985.69
2018-08-08T05:47:33.362Z,985.66
2018-08-08T05:48:33.507Z,985.73
2018-08-08T05:49:33.681Z,985.84
2018-08-08T05:50:33.815Z,986.01
2018-08-08T05:51:33.957Z,986.13
2018-08-08T05:52:34.104Z,986.22
2018-08-08T05:53:34.268Z,986.31
2018-08-08T05:54:34.411Z,986.31
2018-08-08T05:55:34.560Z,986.35
2018-08-08T05:56:34.706Z,986.37
2018-08-08T05:57:34.865Z,986.40
2018-08-08T05:58:35.084Z,986.47
2018-08-08T05:59:35.102Z,986.49
2018-08-08T06:00:35.267Z,986.48
2018-08-08T06:01:35.457Z,986.56
2018-08-08T06:02:35.550Z,986.61
2018-08-08T06:03:35.722Z,986.67
2018-08-08T06:04:35.856Z,986.66
2018-08-08T06:05:36.023Z,986.67
2018-08-08T06:06:36.154Z,986.68
2018-08-08T06:07:36.298Z,986.72
2018-08-08T06:08:36.472Z,986.74
2018-08-08T06:09:36.605Z,986.82
2018-08-08T06:10:36.747Z,986.79
2018-08-08T06:11:36.941Z,986.80
2018-08-08T06:12:37.080Z,986.79
2018-08-08T06:13:37.221Z,986.84
2018-08-08T06:14:37.359Z,986.84
2018-08-08T06:15:37.545Z,986.83
2018-08-08T06:16:37.668Z,986.82
2018-08-08T06:17:37.814Z,986.83
2018-08-08T06:18:37.979Z,986.83
2018-08-08T06:19:38.109Z,986.83
2018-08-08T06:20:38.256Z,986.86
2018-08-08T06:21:38.401Z,986.83
2018-08-08T06:22:38.574Z,986.81
2018-08-08T06:23:38.696Z,986.79
2018-08-08T06:24:38.839Z,986.78
2018-08-08T06:25:38.977Z,986.83
2018-08-08T06:26:39.138Z,986.79
2018-08-08T06:27:39.281Z,986.78
2018-08-08T06:28:39.418Z,986.71
2018-08-08T06:29:39.560Z,986.73
2018-08-08T06:30:39.779Z,986.71
2018-08-08T06:31:39.872Z,986.68
2018-08-08T06:32:40.014Z,986.64
2018-08-08T06:33:40.174Z,986.63
2018-08-08T06:34:40.323Z,986.53
2018-08-08T06:35:40.455Z,986.52
2018-08-08T06:36:40.601Z,986.47
2018-08-08T06:37:40.758Z,986.43
2018-08-08T06:38:40.895Z,986.42
2018-08-08T06:39:41.036Z,986.34
2018-08-08T06:40:41.179Z,986.38
2018-08-08T06:41:41.329Z,986.38
2018-08-08T06:42:41.473Z,986.42
2018-08-08T06:43:41.635Z,986.45
2018-08-08T06:44:41.756Z,986.43
2018-08-08T06:45:41.928Z,986.46
2018-08-08T06:46:42.076Z,986.49
2018-08-08T06:47:42.212Z,986.47
2018-08-08T06:48:42.368Z,986.47
2018-08-08T06:49:42.510Z,986.43
2018-08-08T06:50:42.649Z,986.44
2018-08-08T06:51:42.806Z,986.43
2018-08-08T06:52:42.944Z,986.49
2018-08-08T06:53:43.088Z,986.49
2018-08-08T06:54:43.238Z,986.50
2018-08-08T06:55:43.398Z,986.48
2018-08-08T06:56:43.540Z,986.49
2018-08-08T06:57:43.682Z,986.42
2018-08-08T06:58:43.842Z,986.44
2018-08-08T06:59:44.037Z,986.43
2018-08-08T07:00:44.128Z,986.39
2018-08-08T07:01:44.289Z,986.36
2018-08-08T07:02:44.427Z,986.37
2018-08-08T07:03:44.573Z,986.34
2018-08-08T07:04:44.716Z,986.35
2018-08-08T07:05:44.893Z,986.35
2018-08-08T07:06:45.029Z,986.29
2018-08-08T07:07:45.175Z,986.28
2018-08-08T07:08:45.320Z,986.33
2018-08-08T07:09:45.528Z,986.38
2018-08-08T07:10:45.640Z,986.31
2018-08-08T07:11:45.782Z,986.32
2018-08-08T07:12:45.926Z,986.30
2018-08-08T07:13:46.074Z,986.28
2018-08-08T07:14:46.213Z,986.38
2018-08-08T07:15:46.357Z,986.31
2018-08-08T07:16:46.494Z,986.31
2018-08-08T07:17:46.631Z,986.34
2018-08-08T07:18:46.773Z,986.31
2018-08-08T07:19:46.967Z,986.33
2018-08-08T07:20:47.061Z,986.40
2018-08-08T07:21:47.200Z,986.49
2018-08-08T07:22:47.344Z,986.50
2018-08-08T07:23:47.541Z,986.48
2018-08-08T07:24:47.673Z,986.42
2018-08-08T07:25:47.816Z,986.45
2018-08-08T07:26:47.987Z,986.42
2018-08-08T07:27:48.139Z,986.46
2018-08-08T07:28:48.273Z,986.50
2018-08-08T07:29:48.432Z,986.49
2018-08-08T07:30:48.573Z,986.49
2018-08-08T07:31:48.716Z,986.57
2018-08-08T07:32:48.869Z,986.51
2018-08-08T07:33:49.051Z,986.50
2018-08-08T07:34:49.191Z,986.51
2018-08-08T07:35:49.334Z,986.46
2018-08-08T07:36:49.493Z,986.44
2018-08-08T07:37:49.633Z,986.38
2018-08-08T07:38:49.773Z,986.40
2018-08-08T07:39:49.954Z,986.36
2018-08-08T07:40:50.081Z,986.39
2018-08-08T07:41:50.256Z,986.47
2018-08-08T07:42:50.390Z,986.42
2018-08-08T07:43:50.532Z,986.39
2018-08-08T07:44:50.673Z,986.39
2018-08-08T07:45:50.836Z,986.40
2018-08-08T07:46:50.972Z,986.42
2018-08-08T07:47:51.165Z,986.36
2018-08-08T07:48:51.260Z,986.39
2018-08-08T07:49:51.399Z,986.39
2018-08-08T07:50:51.542Z,986.38
2018-08-08T07:51:51.685Z,986.33
2018-08-08T07:52:51.827Z,986.30
2018-08-08T07:53:52.000Z,986.33
2018-08-08T07:54:52.137Z,986.34
2018-08-08T07:55:52.278Z,986.32
2018-08-08T07:56:52.419Z,986.27
2018-08-08T07:57:52.571Z,986.29
2018-08-08T07:58:52.693Z,986.23
2018-08-08T07:59:52.837Z,986.20
2018-08-08T08:00:52.993Z,986.18
2018-08-08T08:01:53.137Z,986.15
2018-08-08T08:02:53.304Z,986.14
2018-08-08T08:03:53.442Z,986.08
2018-08-08T08:04:53.582Z,986.07
2018-08-08T08:05:53.723Z,986.07
2018-08-08T08:06:53.877Z,986.06
2018-08-08T08:07:54.012Z,985.98
2018-08-08T08:08:54.151Z,985.97
2018-08-08T08:09:54.304Z,985.91
2018-08-08T08:10:54.446Z,985.84
2018-08-08T08:11:54.589Z,985.89
2018-08-08T08:12:54.825Z,985.86
2018-08-08T08:13:54.879Z,985.82
2018-08-08T08:14:55.017Z,985.82
2018-08-08T08:15:55.157Z,985.82
2018-08-08T08:16:55.325Z,985.84
2018-08-08T08:17:55.462Z,985.79
2018-08-08T08:18:55.603Z,985.77
2018-08-08T08:19:55.740Z,985.79
2018-08-08T08:20:55.890Z,985.73
2018-08-08T08:21:56.036Z,985.75
2018-08-08T08:22:56.181Z,985.73
2018-08-08T08:23:56.312Z,985.76
2018-08-08T08:24:56.478Z,985.80
2018-08-08T08:25:56.612Z,985.73
2018-08-08T08:26:56.778Z,985.74
2018-08-08T08:27:56.916Z,985.72
2018-08-08T08:28:57.060Z,985.75
2018-08-08T08:29:57.262Z,985.79
2018-08-08T08:30:57.357Z,985.77
2018-08-08T08:31:57.499Z,985.77
2018-08-08T08:32:57.644Z,985.74
2018-08-08T08:33:57.791Z,985.70
2018-08-08T08:34:57.943Z,985.68
2018-08-08T08:35:58.107Z,985.66
2018-08-08T08:36:58.246Z,985.68
2018-08-08T08:37:58.389Z,985.59
2018-08-08T08:38:58.533Z,985.55
2018-08-08T08:39:58.698Z,985.49
2018-08-08T08:40:58.834Z,985.43
2018-08-08T08:41:58.978Z,985.43
2018-08-08T08:42:59.121Z,985.40
2018-08-08T08:43:59.292Z,985.43
2018-08-08T08:44:59.429Z,985.38
2018-08-08T08:45:59.575Z,985.38
2018-08-08T08:46:59.745Z,985.36
2018-08-08T08:47:59.872Z,985.30
2018-08-08T08:49:00.013Z,985.30
2018-08-08T08:50:00.166Z,985.27
2018-08-08T08:51:00.302Z,985.20
2018-08-08T08:52:00.474Z,985.19
2018-08-08T08:53:00.603Z,985.21
2018-08-08T08:54:00.746Z,985.22
2018-08-08T08:55:00.887Z,985.18
2018-08-08T08:56:01.075Z,985.16
2018-08-08T08:57:01.216Z,985.09
2018-08-08T08:58:01.359Z,985.04
2018-08-08T08:59:01.502Z,985.06
2018-08-08T09:00:01.667Z,984.90
2018-08-08T09:01:01.808Z,984.86
2018-08-08T09:02:01.951Z,984.85
2018-08-08T09:03:02.103Z,984.80
2018-08-08T09:04:02.280Z,984.83
2018-08-08T09:05:02.427Z,984.86
2018-08-08T09:06:02.571Z,984.84
2018-08-08T09:07:02.708Z,984.83
2018-08-08T09:08:02.880Z,984.87
2018-08-08T09:09:03.021Z,984.89
2018-08-08T09:10:03.169Z,984.86
2018-08-08T09:11:03.312Z,984.93
2018-08-08T09:12:03.472Z,985.02
2018-08-08T09:13:03.623Z,985.15
2018-08-08T09:14:03.766Z,985.23
2018-08-08T09:15:03.929Z,985.33
2018-08-08T09:16:04.085Z,985.39
2018-08-08T09:17:04.222Z,985.43
2018-08-08T09:18:04.371Z,985.46
2018-08-08T09:19:04.514Z,985.55
2018-08-08T09:20:04.664Z,985.57
2018-08-08T09:21:04.806Z,985.63
2018-08-08T09:22:04.952Z,985.68
2018-08-08T09:23:05.094Z,985.76
2018-08-08T09:24:05.260Z,985.76
2018-08-08T09:25:05.397Z,985.75
2018-08-08T09:26:05.542Z,985.82
2018-08-08T09:27:05.694Z,985.77
2018-08-08T09:28:05.928Z,985.84
2018-08-08T09:29:05.946Z,985.85
2018-08-08T09:30:06.089Z,985.89
2018-08-08T09:31:06.258Z,985.89
2018-08-08T09:32:06.397Z,985.93
2018-08-08T09:33:06.546Z,985.93
2018-08-08T09:34:06.713Z,985.98
2018-08-08T09:35:06.844Z,986.01
2018-08-08T09:36:06.996Z,986.05
2018-08-08T09:37:07.150Z,986.07
2018-08-08T09:38:07.292Z,986.03
2018-08-08T09:39:07.432Z,986.12
2018-08-08T09:40:07.613Z,986.11
2018-08-08T09:41:07.735Z,986.17
2018-08-08T09:42:07.882Z,986.14
2018-08-08T09:43:08.024Z,986.21
2018-08-08T09:44:08.237Z,986.27
2018-08-08T09:45:08.344Z,986.35
2018-08-08T09:46:08.494Z,986.35
2018-08-08T09:47:08.637Z,986.47
2018-08-08T09:48:08.813Z,986.31
2018-08-08T09:49:08.952Z,986.38
2018-08-08T09:50:09.103Z,986.37
2018-08-08T09:51:09.250Z,986.39
2018-08-08T09:52:09.393Z,986.35
2018-08-08T09:53:09.541Z,986.33
2018-08-08T09:54:09.804Z,986.35
2018-08-08T09:55:09.849Z,986.38
2018-08-08T09:56:09.996Z,986.46
2018-08-08T09:57:10.146Z,986.47
2018-08-08T09:58:10.313Z,986.38
2018-08-08T09:59:10.453Z,986.58
2018-08-08T10:00:11.172Z,986.47
2018-08-08T10:01:10.741Z,986.49
2018-08-08T10:02:10.882Z,986.49
2018-08-08T10:03:11.034Z,986.56
2018-08-08T10:04:11.214Z,986.55
2018-08-08T10:05:11.352Z,986.62
2018-08-08T10:06:11.494Z,986.52
2018-08-08T10:07:11.641Z,986.61
2018-08-08T10:08:11.805Z,986.65
2018-08-08T10:09:11.936Z,986.53
2018-08-08T10:10:12.074Z,986.56
2018-08-08T10:11:12.224Z,986.68
2018-08-08T10:12:12.366Z,986.69
2018-08-08T10:13:12.519Z,986.76
2018-08-08T10:14:12.662Z,986.66
2018-08-08T10:15:12.824Z,986.74
2018-08-08T10:16:12.969Z,986.70
2018-08-08T10:17:13.123Z,986.74
2018-08-08T10:18:13.295Z,986.76
2018-08-08T10:19:14.177Z,986.82
2018-08-08T10:20:13.608Z,986.87
2018-08-08T10:21:13.754Z,986.82
2018-08-08T10:22:13.937Z,986.69
2018-08-08T10:23:14.109Z,986.75
2018-08-08T10:24:14.248Z,986.79
2018-08-08T10:25:14.404Z,986.80
2018-08-08T10:26:14.556Z,986.79
2018-08-08T10:27:14.709Z,986.75
2018-08-08T10:28:14.854Z,986.91
2018-08-08T10:29:14.999Z,986.82
2018-08-08T10:30:15.155Z,986.83
2018-08-08T10:31:15.302Z,986.79
2018-08-08T10:32:15.442Z,986.79
2018-08-08T10:33:15.592Z,986.76
2018-08-08T10:34:15.736Z,986.75
2018-08-08T10:35:15.914Z,986.79
2018-08-08T10:36:16.031Z,986.89
2018-08-08T10:37:16.213Z,986.85
2018-08-08T10:38:16.360Z,986.90
2018-08-08T10:39:16.543Z,986.76
2018-08-08T10:40:16.681Z,986.88
2018-08-08T10:41:16.838Z,986.86
2018-08-08T10:42:16.983Z,987.00
2018-08-08T10:43:17.129Z,986.84
2018-08-08T10:44:17.277Z,986.88
2018-08-08T10:45:17.448Z,986.91
2018-08-08T10:46:17.593Z,986.85
2018-08-08T10:47:17.750Z,987.10
2018-08-08T10:48:17.892Z,987.08
2018-08-08T10:49:18.080Z,986.90
2018-08-08T10:50:18.208Z,986.81
2018-08-08T10:51:18.349Z,986.92
2018-08-08T10:52:18.496Z,986.85
2018-08-08T10:53:18.669Z,986.81
2018-08-08T10:54:18.809Z,986.76
2018-08-08T10:55:18.956Z,986.85
2018-08-08T10:56:19.189Z,986.79
2018-08-08T10:57:19.257Z,986.90
2018-08-08T10:58:19.399Z,986.80
2018-08-08T10:59:19.542Z,986.93
2018-08-08T11:00:19.718Z,986.85
2018-08-08T11:01:19.852Z,986.83
2018-08-08T11:02:20.005Z,986.89
2018-08-08T11:03:20.152Z,986.88
2018-08-08T11:04:20.332Z,986.87
2018-08-08T11:05:20.480Z,986.88
2018-08-08T11:06:20.628Z,986.87
2018-08-08T11:07:20.785Z,986.93
2018-08-08T11:08:20.932Z,986.89
2018-08-08T11:09:21.070Z,986.86
2018-08-08T11:10:21.228Z,986.88
2018-08-08T11:11:21.370Z,986.95
2018-08-08T11:12:21.544Z,987.01
2018-08-08T11:13:21.693Z,987.11
2018-08-08T11:14:21.838Z,987.06
2018-08-08T11:15:22.004Z,987.07
2018-08-08T11:16:22.145Z,987.04
2018-08-08T11:17:22.304Z,987.05
2018-08-08T11:18:22.447Z,987.17
2018-08-08T11:19:22.597Z,987.10
2018-08-08T11:20:22.771Z,987.17
2018-08-08T11:21:22.913Z,987.26
2018-08-08T11:22:23.064Z,987.25
2018-08-08T11:23:23.234Z,987.30
2018-08-08T11:24:23.376Z,987.22
2018-08-08T11:25:23.523Z,987.36
2018-08-08T11:26:23.681Z,987.30
2018-08-08T11:27:23.878Z,987.18
2018-08-08T11:28:24.023Z,987.20
2018-08-08T11:29:24.192Z,987.19
2018-08-08T11:30:24.386Z,987.27
2018-08-08T11:31:24.494Z,987.17
2018-08-08T11:32:24.637Z,987.21
2018-08-08T11:33:24.784Z,987.15
2018-08-08T11:34:24.951Z,987.18
2018-08-08T11:35:25.101Z,987.20
2018-08-08T11:36:25.248Z,987.19
2018-08-08T11:37:25.400Z,987.24
2018-08-08T11:38:25.568Z,987.39
2018-08-08T11:39:25.715Z,987.41
2018-08-08T11:40:25.859Z,987.41
2018-08-08T11:41:26.002Z,987.44
2018-08-08T11:42:26.149Z,987.55
2018-08-08T11:43:26.293Z,987.48
2018-08-08T11:44:26.442Z,987.48
2018-08-08T11:45:26.590Z,987.53
2018-08-08T11:46:26.785Z,987.68
2018-08-08T11:47:26.908Z,987.55
2018-08-08T11:48:27.060Z,987.48
2018-08-08T11:49:27.190Z,987.55
2018-08-08T11:50:27.355Z,987.66
2018-08-08T11:51:27.494Z,987.57
2018-08-08T11:52:27.648Z,987.61
2018-08-08T11:53:27.804Z,987.57
2018-08-08T11:54:27.963Z,987.56
2018-08-08T11:55:28.110Z,987.49
2018-08-08T11:56:28.258Z,987.48
2018-08-08T11:57:28.401Z,987.39
2018-08-08T11:58:28.556Z,987.47
2018-08-08T11:59:28.699Z,987.43
2018-08-08T12:00:28.852Z,987.63
2018-08-08T12:01:28.986Z,987.67
2018-08-08T12:02:29.153Z,987.54
2018-08-08T12:03:29.303Z,987.59
2018-08-08T12:04:29.448Z,987.55
2018-08-08T12:05:29.598Z,987.57
2018-08-08T12:06:29.765Z,987.53
2018-08-08T12:07:29.902Z,987.58
2018-08-08T12:08:30.047Z,987.52
2018-08-08T12:09:30.200Z,987.57
2018-08-08T12:10:30.370Z,987.58
2018-08-08T12:11:30.507Z,987.58
2018-08-08T12:12:30.650Z,987.56
2018-08-08T12:13:30.844Z,987.51
2018-08-08T12:14:31.005Z,987.48
2018-08-08T12:15:31.152Z,987.42
2018-08-08T12:16:31.302Z,987.53
2018-08-08T12:17:31.475Z,987.56
2018-08-08T12:18:32.281Z,987.57
2018-08-08T12:19:31.844Z,987.42
2018-08-08T12:20:32.023Z,987.53
2018-08-08T12:21:32.176Z,987.42
2018-08-08T12:22:32.321Z,987.39
2018-08-08T12:23:32.464Z,987.35
2018-08-08T12:24:32.634Z,987.50
2018-08-08T12:25:32.820Z,987.36
2018-08-08T12:26:32.928Z,987.53
2018-08-08T12:27:33.072Z,987.48
2018-08-08T12:28:33.318Z,987.50
2018-08-08T12:29:33.377Z,987.43
2018-08-08T12:30:33.525Z,987.57